Time;durP1;ratioP1;P1;durP2;ratioP2;P2;SDS_P1;SDS_P2;PMS_P1;PMS_P2;Temp;Humidity;BMP_temperature;BMP_pressure;BME280_temperature;BME280_humidity;BME280_pressure;Samples;Min_cycle;Max_cycle;Signal;HPM_P1;HPM_P2
2024/04/01 03:57:54;;;;;;;2.10;1.53;;;;;;;13.58;75.74;97610.13;6124829;23;20033;-89
2024/04/01 04:00:20;;;;;;;3.40;2.30;;;;;;;13.55;76.07;97603.34;6076645;23;20026;-89
2024/04/01 04:05:50;;;;;;;3.50;2.10;;;;;;;13.50;76.14;97602.16;5984664;23;20023;-89
2024/04/01 04:08:15;;;;;;;4.95;2.40;;;;;;;13.47;76.13;97605.91;5984832;23;20023;-88
2024/04/01 04:13:54;;;;;;;3.65;2.00;;;;;;;13.43;75.88;97601.94;5985273;23;20019;-89
2024/04/01 04:16:20;;;;;;;3.95;2.53;;;;;;;13.37;75.48;97595.47;5961648;23;20027;-91
2024/04/01 04:18:59;;;;;;;3.75;2.03;;;;;;;13.30;74.20;97586.50;5961612;23;20116;-90
2024/04/01 04:21:25;;;;;;;2.97;1.80;;;;;;;13.27;75.64;97582.38;5961913;23;20028;-91
2024/04/01 04:23:50;;;;;;;6.35;2.08;;;;;;;13.22;75.54;97584.66;5962653;23;20024;-93
2024/04/01 04:26:17;;;;;;;4.70;2.40;;;;;;;13.16;75.71;97575.56;5987532;23;20024;-89
2024/04/01 04:28:43;;;;;;;4.47;2.00;;;;;;;13.09;75.94;97569.22;5986592;23;20024;-91
2024/04/01 04:31:09;;;;;;;3.47;1.80;;;;;;;13.05;76.16;97562.66;6078162;23;20077;-93
2024/04/01 04:37:18;;;;;;;2.55;1.77;;;;;;;12.94;76.31;97565.53;6128315;23;20519;-90
2024/04/01 04:43:25;;;;;;;2.60;1.42;;;;;;;12.93;77.67;97577.09;6127845;23;20025;-89
2024/04/01 04:49:14;;;;;;;2.27;1.70;;;;;;;12.97;78.19;97571.34;6102416;23;20026;-93
2024/04/01 04:51:40;;;;;;;4.82;1.88;;;;;;;12.99;78.12;97569.38;6079127;23;20265;-90
2024/04/01 04:58:05;;;;;;;3.40;1.92;;;;;;;13.01;76.57;97574.50;6128575;23;20113;-93
2024/04/01 05:00:31;;;;;;;3.83;1.77;;;;;;;13.05;77.86;97573.22;6078015;23;20022;-91
2024/04/01 05:02:57;;;;;;;3.80;2.10;;;;;;;13.05;78.13;97575.84;6078479;23;20022;-93
2024/04/01 05:12:28;;;;;;;3.25;1.90;;;;;;;13.05;76.91;97589.06;6102109;23;20021;-93
2024/04/01 05:14:55;;;;;;;3.50;1.77;;;;;;;13.03;77.49;97588.38;6078604;23;20048;-94
2024/04/01 05:17:29;;;;;;;2.95;1.70;;;;;;;12.97;76.79;97575.81;6078353;23;20050;-91
2024/04/01 05:19:54;;;;;;;4.72;1.75;;;;;;;12.98;77.98;97572.16;6077630;23;20028;-91
2024/04/01 05:26:19;;;;;;;3.83;1.60;;;;;;;12.95;77.51;97586.53;6127584;23;20021;-90
2024/04/01 05:28:44;;;;;;;2.90;1.50;;;;;;;12.99;78.52;97594.94;6102373;23;20022;-93
2024/04/01 05:31:10;;;;;;;3.45;1.70;;;;;;;13.00;78.42;97596.59;6077988;23;20045;-90
2024/04/01 05:37:27;;;;;;;3.70;1.27;;;;;;;13.01;78.80;97590.34;6128196;23;20118;-90
2024/04/01 05:43:53;;;;;;;2.85;1.30;;;;;;;13.08;78.98;97612.50;6127770;23;20474;-90
2024/04/01 05:49:32;;;;;;;2.40;1.30;;;;;;;13.12;78.80;97615.66;6101359;23;20085;-89
2024/04/01 05:51:57;;;;;;;2.08;1.02;;;;;;;13.14;78.74;97614.53;6078473;23;20030;-94
2024/04/01 05:55:00;;;;;;;2.20;1.30;;;;;;;13.11;77.88;97620.09;6077728;23;20026;-89
2024/04/01 06:01:12;;;;;;;1.85;1.25;;;;;;;13.22;78.86;97623.44;6127281;23;20524;-89
2024/04/01 06:03:55;;;;;;;2.72;1.60;;;;;;;13.19;78.02;97634.34;6077751;23;20096;-91
2024/04/01 06:06:21;;;;;;;;;;;;;;;13.22;77.46;97626.94;6078800;23;20048;-91
2024/04/01 06:08:46;;;;;;;3.97;1.42;;;;;;;13.30;78.62;97626.13;6077537;23;19916;-92
2024/04/01 06:11:14;;;;;;;2.33;1.33;;;;;;;13.27;78.70;97614.06;6077328;23;20080;-88
2024/04/01 06:13:39;;;;;;;4.97;1.80;;;;;;;13.28;79.00;97626.28;6077036;23;20026;-88
2024/04/01 06:16:05;;;;;;;4.10;2.17;;;;;;;13.28;78.83;97633.41;6077095;23;20022;-88
2024/04/01 06:18:36;;;;;;;3.25;1.80;;;;;;;13.26;78.00;97646.78;6076870;23;20026;-88
2024/04/01 06:21:02;;;;;;;1.73;1.50;;;;;;;13.28;78.92;97651.91;6077188;23;20461;-93
2024/04/01 06:23:27;;;;;;;3.70;1.48;;;;;;;13.29;78.76;97648.28;6077451;23;20033;-89
2024/04/01 06:29:40;;;;;;;4.50;1.50;;;;;;;13.29;78.52;97653.56;6127312;23;20050;-92
2024/04/01 06:32:35;;;;;;;2.55;1.48;;;;;;;13.22;76.74;97657.78;6077080;23;20022;-88
2024/04/01 06:35:02;;;;;;;2.60;1.73;;;;;;;13.23;77.79;97654.19;6077457;23;20057;-92
2024/04/01 06:37:28;;;;;;;3.22;1.75;;;;;;;13.15;77.63;97647.88;6076792;23;20026;-88
2024/04/01 06:39:57;;;;;;;3.15;1.60;;;;;;;13.07;77.71;97642.53;6077191;23;20030;-91
2024/04/01 06:42:23;;;;;;;3.42;1.90;;;;;;;13.03;78.25;97643.81;6076759;23;20021;-88
2024/04/01 06:44:49;;;;;;;9.68;2.00;;;;;;;12.99;78.53;97645.13;6076696;23;20049;-88
2024/04/01 06:47:16;;;;;;;3.97;1.90;;;;;;;12.94;78.54;97645.59;6076671;23;20026;-88
2024/04/01 06:49:42;;;;;;;4.80;2.33;;;;;;;12.91;78.74;97645.91;6076464;23;20048;-91
2024/04/01 06:52:08;;;;;;;2.25;1.70;;;;;;;12.88;79.19;97649.69;6076950;23;20474;-88
2024/04/01 06:54:34;;;;;;;2.55;1.83;;;;;;;12.86;79.42;97654.28;6065334;23;20456;-84
2024/04/01 06:57:00;;;;;;;2.65;1.80;;;;;;;12.87;79.73;97655.94;6047131;23;20073;-84
2024/04/01 06:59:25;;;;;;;3.53;1.92;;;;;;;12.88;79.75;97659.41;6046639;23;20109;-85
2024/04/01 07:01:51;;;;;;;2.47;1.70;;;;;;;12.88;79.57;97654.97;6070795;23;20498;-84
2024/04/01 07:04:19;;;;;;;2.97;2.03;;;;;;;12.89;79.44;97663.69;6070033;23;20022;-84
2024/04/01 07:06:44;;;;;;;2.60;1.83;;;;;;;12.88;79.44;97668.16;6046913;23;20026;-85
2024/04/01 07:09:10;;;;;;;2.50;1.83;;;;;;;12.87;79.68;97666.50;6070879;23;20356;-84
2024/04/01 07:11:36;;;;;;;4.13;1.95;;;;;;;12.87;79.64;97661.22;6070385;23;20026;-85
2024/04/01 07:14:01;;;;;;;1.77;1.30;;;;;;;12.88;79.89;97659.41;6069856;23;20078;-84
2024/04/01 07:16:27;;;;;;;4.03;1.77;;;;;;;12.87;79.56;97661.22;6069931;23;20062;-85
2024/04/01 07:18:53;;;;;;;3.85;1.40;;;;;;;12.87;79.32;97655.94;6070062;23;20810;-85
2024/04/01 07:21:18;;;;;;;5.00;1.40;;;;;;;12.86;79.56;97648.19;6045877;23;20026;-85
2024/04/01 07:23:46;;;;;;;3.97;1.65;;;;;;;12.86;79.56;97645.56;6045322;23;20026;-84
2024/04/01 07:26:12;;;;;;;2.42;1.38;;;;;;;12.86;79.32;97648.19;6045383;23;20033;-84
2024/04/01 07:28:38;;;;;;;3.45;1.92;;;;;;;12.85;79.39;97639.44;6069527;23;20030;-84
2024/04/01 07:31:06;;;;;;;2.10;1.50;;;;;;;12.83;79.23;97635.28;6046395;23;20030;-84
2024/04/01 07:33:32;;;;;;;2.30;1.33;;;;;;;12.85;79.73;97628.88;6069220;23;20466;-84
2024/04/01 07:35:59;;;;;;;3.50;1.83;;;;;;;12.85;79.58;97631.50;6069883;23;20034;-84
2024/04/01 07:38:25;;;;;;;4.15;1.55;;;;;;;12.84;79.69;97632.50;6070492;23;20026;-84
2024/04/01 07:40:50;;;;;;;2.67;1.50;;;;;;;12.84;79.89;97635.13;6069836;23;20022;-84
2024/04/01 07:43:16;;;;;;;3.78;1.73;;;;;;;12.83;79.64;97636.13;6045623;23;20026;-84
2024/04/01 07:45:43;;;;;;;2.72;1.58;;;;;;;12.82;79.66;97637.09;6069206;23;20022;-85
2024/04/01 07:48:09;;;;;;;1.77;1.65;;;;;;;12.82;79.81;97641.56;6069836;23;20026;-85
2024/04/01 07:50:35;;;;;;;2.20;1.90;;;;;;;12.80;79.77;97641.72;6069881;23;20037;-84
2024/04/01 07:53:00;;;;;;;2.53;2.03;;;;;;;12.81;80.04;97645.16;6069875;23;20023;-84
2024/04/01 07:55:26;;;;;;;1.70;1.48;;;;;;;12.81;80.25;97643.34;6045554;23;20018;-85
2024/04/01 07:57:54;;;;;;;2.45;1.85;;;;;;;12.81;80.13;97643.34;6045623;23;20037;-85
2024/04/01 08:00:19;;;;;;;3.60;1.67;;;;;;;12.82;79.98;97652.94;6071067;23;20077;-84
2024/04/01 08:02:45;;;;;;;3.22;1.80;;;;;;;12.82;79.75;97650.28;6071758;23;20109;-85
2024/04/01 08:05:11;;;;;;;3.13;1.92;;;;;;;12.80;79.79;97654.91;6070620;23;20019;-85
2024/04/01 08:07:36;;;;;;;2.33;1.63;;;;;;;12.80;79.85;97649.63;6071777;23;20073;-84
2024/04/01 08:10:03;;;;;;;1.88;1.52;;;;;;;12.80;80.00;97654.06;6071676;23;20082;-84
2024/04/01 08:12:29;;;;;;;2.80;2.00;;;;;;;12.80;80.19;97659.34;6071731;23;20022;-84
2024/04/01 08:14:55;;;;;;;2.63;2.20;;;;;;;12.81;80.46;97655.72;6071523;23;20472;-85
2024/04/01 08:17:20;;;;;;;2.05;1.85;;;;;;;12.82;80.65;97652.94;6048911;23;20031;-83
2024/04/01 08:19:47;;;;;;;5.53;3.05;;;;;;;12.85;80.85;97657.06;6072087;23;20467;-84
2024/04/01 08:22:14;;;;;;;5.10;3.97;;;;;;;12.88;80.88;97656.78;6048705;23;20026;-84
2024/04/01 08:24:40;;;;;;;4.70;2.90;;;;;;;12.90;81.09;97655.63;6070636;23;20022;-85
2024/04/01 08:27:06;;;;;;;3.88;2.80;;;;;;;12.95;81.14;97656.97;6071024;23;20061;-85
2024/04/01 08:29:32;;;;;;;6.18;2.35;;;;;;;12.98;80.82;97656.69;6070484;23;20026;-85
2024/04/01 08:31:57;;;;;;;4.13;2.15;;;;;;;13.03;80.95;97654.38;6070969;23;20464;-85
2024/04/01 08:34:23;;;;;;;2.83;2.00;;;;;;;13.07;80.95;97657.53;6070275;23;20032;-85
2024/04/01 08:36:49;;;;;;;3.75;2.40;;;;;;;13.08;80.69;97662.66;6046999;23;20101;-85
2024/04/01 08:39:14;;;;;;;3.72;2.20;;;;;;;13.10;80.66;97659.88;6070701;23;20101;-85
2024/04/01 08:41:46;;;;;;;4.32;2.55;;;;;;;13.10;79.88;97658.09;6046640;23;20341;-85
2024/04/01 08:44:13;;;;;;;2.00;1.80;;;;;;;13.14;80.96;97662.06;6070142;23;20023;-85
2024/04/01 08:46:50;;;;;;;4.97;2.03;;;;;;;13.15;80.66;97662.88;6046477;23;20029;-85
2024/04/01 08:49:37;;;;;;;2.80;2.33;;;;;;;13.20;81.11;97655.31;6069960;23;20033;-85
2024/04/01 08:52:04;;;;;;;3.70;2.63;;;;;;;13.29;81.88;97656.19;6070130;23;20411;-85
2024/04/01 08:54:30;;;;;;;7.53;2.53;;;;;;;13.36;81.69;97649.31;6069760;23;20030;-85
2024/04/01 08:56:56;;;;;;;4.43;2.60;;;;;;;13.43;81.90;97649.50;6046543;23;20325;-85
2024/04/01 08:59:22;;;;;;;3.30;2.30;;;;;;;13.49;81.51;97658.66;6069703;23;20026;-85
2024/04/01 09:01:48;;;;;;;4.20;2.80;;;;;;;13.54;81.07;97656.34;6069964;23;20027;-85
2024/04/01 09:04:13;;;;;;;3.70;2.78;;;;;;;13.59;81.37;97647.94;6069953;23;20055;-85
2024/04/01 09:06:39;;;;;;;6.55;2.60;;;;;;;13.63;81.72;97652.75;6069743;23;20054;-85
2024/04/01 09:09:05;;;;;;;4.20;2.58;;;;;;;13.69;82.17;97653.94;6070707;23;20053;-85
2024/04/01 09:11:30;;;;;;;4.55;2.80;;;;;;;13.79;82.76;97662.53;6070083;23;20029;-85
2024/04/01 09:13:56;;;;;;;4.18;2.88;;;;;;;13.88;82.48;97652.84;6070207;23;20030;-85
2024/04/01 09:16:24;;;;;;;5.60;3.00;;;;;;;13.98;82.19;97657.16;6071147;23;20026;-85
2024/04/01 09:18:50;;;;;;;5.15;3.30;;;;;;;14.05;82.18;97661.63;6071032;23;20030;-85
2024/04/01 09:21:20;;;;;;;3.65;2.92;;;;;;;14.13;80.81;97660.81;6071383;23;20364;-85
2024/04/01 09:23:47;;;;;;;7.63;3.42;;;;;;;14.23;81.69;97657.19;6047296;23;20701;-85
2024/04/01 09:26:14;;;;;;;4.35;2.90;;;;;;;14.30;81.78;97658.19;6071258;23;20026;-85
2024/04/01 09:28:40;;;;;;;3.95;3.28;;;;;;;14.37;82.21;97661.84;6047657;23;20026;-85
2024/04/01 09:31:05;;;;;;;3.78;3.05;;;;;;;14.44;81.83;97657.53;6071619;23;20029;-85
2024/04/01 09:33:32;;;;;;;5.00;3.78;;;;;;;14.52;81.67;97661.19;6071531;23;20551;-85
2024/04/01 09:35:59;;;;;;;4.78;4.22;;;;;;;14.61;81.32;97660.19;6071601;23;20026;-85
2024/04/01 09:38:26;;;;;;;4.85;4.35;;;;;;;14.67;81.30;97653.41;6071671;23;20037;-85
2024/04/01 09:40:56;;;;;;;5.18;4.68;;;;;;;14.73;81.31;97653.56;6070589;23;20030;-85
2024/04/01 09:43:55;;;;;;;5.13;4.63;;;;;;;14.79;79.53;97653.94;6071731;23;20029;-85
2024/04/01 09:46:21;;;;;;;7.30;5.88;;;;;;;14.91;81.07;97654.44;6048116;23;20027;-85
2024/04/01 09:48:47;;;;;;;7.72;5.20;;;;;;;14.97;81.07;97657.25;6071753;23;20535;-85
2024/04/01 09:51:13;;;;;;;5.63;5.10;;;;;;;15.03;80.70;97662.84;6047405;23;20026;-85
2024/04/01 09:53:39;;;;;;;7.72;5.35;;;;;;;15.08;80.61;97663.19;6070813;23;20077;-85
2024/04/01 09:56:42;;;;;;;6.80;5.75;;;;;;;15.06;78.10;97670.47;6072198;23;20022;-85
2024/04/01 09:59:26;;;;;;;6.57;5.63;;;;;;;15.09;77.05;97667.47;6071381;23;20023;-85
2024/04/01 10:01:52;;;;;;;5.75;5.15;;;;;;;15.13;79.01;97671.44;6071945;23;20057;-85
2024/04/01 10:04:39;;;;;;;5.75;5.10;;;;;;;15.10;78.03;97666.47;6071438;23;20019;-85
2024/04/01 10:07:11;;;;;;;8.10;5.13;;;;;;;15.08;78.02;97677.25;6047878;23;20476;-85
2024/04/01 10:09:55;;;;;;;5.43;4.93;;;;;;;15.02;77.20;97667.31;6072412;23;20098;-85
2024/04/01 10:12:51;;;;;;;5.40;4.90;;;;;;;15.01;77.15;97678.09;6072274;23;20026;-85
2024/04/01 10:15:45;;;;;;;4.93;4.05;;;;;;;15.00;76.83;97679.09;6072165;23;20031;-85
2024/04/01 10:18:28;;;;;;;6.03;4.85;;;;;;;15.01;78.27;97678.91;6049171;23;20363;-85
2024/04/01 10:21:35;;;;;;;9.25;5.60;;;;;;;14.92;76.37;97677.28;6073042;23;20023;-85
2024/04/01 10:24:08;;;;;;;5.60;5.00;;;;;;;14.89;76.49;97689.03;6071990;23;20472;-85
2024/04/01 10:26:57;;;;;;;4.88;4.47;;;;;;;14.80;75.98;97698.78;6044583;23;20038;-85
2024/04/01 10:29:59;;;;;;;5.10;4.60;;;;;;;14.72;75.75;97691.66;6044324;23;20026;-85
2024/04/01 10:32:43;;;;;;;6.60;5.28;;;;;;;14.65;76.10;97693.28;6044851;23;20376;-85
2024/04/01 10:35:40;;;;;;;6.45;4.88;;;;;;;14.58;75.80;97700.25;6020902;23;20026;-85
2024/04/01 10:38:52;;;;;;;5.25;3.88;;;;;;;14.44;75.13;97705.19;6046152;23;20027;-85
2024/04/01 10:41:40;;;;;;;5.30;4.13;;;;;;;14.39;76.28;97711.97;6047173;23;20033;-85
2024/04/01 10:44:24;;;;;;;5.18;3.90;;;;;;;14.30;77.06;97711.13;6046695;23;20026;-85
2024/04/01 10:47:27;;;;;;;5.90;4.15;;;;;;;14.14;76.20;97712.75;6041401;23;20342;-84
2024/04/01 10:50:10;;;;;;;6.90;4.88;;;;;;;14.09;76.94;97709.75;6018682;23;20473;-85
2024/04/01 10:52:47;;;;;;;5.45;4.60;;;;;;;14.05;78.08;97711.06;6018911;23;20026;-85
2024/04/01 10:55:46;;;;;;;6.35;4.93;;;;;;;13.96;77.36;97709.38;6040844;23;20022;-85
2024/04/01 10:58:44;;;;;;;6.50;4.50;;;;;;;13.91;77.29;97712.50;6041492;23;20480;-84
2024/04/01 11:01:38;;;;;;;4.82;4.20;;;;;;;13.91;78.47;97710.69;6041220;23;20605;-85
2024/04/01 11:04:23;;;;;;;6.70;4.60;;;;;;;13.88;78.73;97708.38;6040496;23;20038;-85
2024/04/01 11:07:30;;;;;;;6.55;4.68;;;;;;;13.89;79.21;97712.66;6041452;23;20033;-85
2024/04/01 11:10:17;;;;;;;6.70;4.65;;;;;;;13.94;79.89;97714.81;6002553;23;20030;-85
2024/04/01 11:13:15;;;;;;;5.75;4.68;;;;;;;14.00;79.86;97713.34;6040548;23;20484;-85
2024/04/01 11:15:42;;;;;;;6.03;4.10;;;;;;;14.12;81.12;97712.06;6039617;23;20076;-85
2024/04/01 11:18:46;;;;;;;4.93;4.43;;;;;;;14.13;79.57;97719.00;6040992;23;20027;-85
2024/04/01 11:21:24;;;;;;;5.47;4.07;;;;;;;14.24;80.09;97717.06;6017557;23;20023;-85
2024/04/01 11:24:05;;;;;;;4.47;3.92;;;;;;;14.24;79.04;97707.31;6040847;23;20031;-85
2024/04/01 11:26:59;;;;;;;4.47;3.78;;;;;;;14.29;79.14;97712.13;6069269;23;20031;-85
2024/04/01 11:29:27;;;;;;;;;;;;;;;14.35;78.86;97715.94;6046712;23;20027;-85
2024/04/01 11:32:16;;;;;;;3.08;2.72;;;;;;;14.39;78.61;97715.44;6046158;23;19918;-84
2024/04/01 11:34:51;;;;;;;4.35;2.70;;;;;;;14.48;80.53;97723.41;6046844;23;20029;-85
2024/04/01 11:37:19;;;;;;;4.32;2.92;;;;;;;14.49;79.76;97717.94;6072790;23;20038;-85
2024/04/01 11:39:50;;;;;;;2.75;2.55;;;;;;;14.53;79.99;97718.44;6072041;23;20026;-85
2024/04/01 11:42:21;;;;;;;3.35;2.78;;;;;;;14.60;79.55;97724.75;6071873;23;20023;-85
2024/04/01 11:44:48;;;;;;;3.20;2.38;;;;;;;14.66;80.31;97723.25;6071523;23;20450;-85
2024/04/01 11:47:16;;;;;;;3.05;2.50;;;;;;;14.68;80.26;97732.69;6072354;23;20026;-85
2024/04/01 11:49:42;;;;;;;3.45;2.20;;;;;;;14.73;80.00;97729.56;6047567;23;20030;-85
2024/04/01 11:52:16;;;;;;;2.58;2.20;;;;;;;14.75;78.23;97726.72;6071623;23;20026;-85
2024/04/01 11:54:43;;;;;;;2.88;2.65;;;;;;;14.80;79.14;97733.22;6072144;23;20022;-85
2024/04/01 11:57:09;;;;;;;5.22;2.97;;;;;;;14.80;78.81;97727.13;6048042;23;20030;-85
2024/04/01 11:59:36;;;;;;;3.53;2.97;;;;;;;14.80;78.83;97729.75;6071070;23;20034;-85
2024/04/01 12:02:12;;;;;;;6.07;3.28;;;;;;;14.75;77.40;97726.72;6071352;23;20029;-85
2024/04/01 12:04:37;;;;;;;5.47;3.10;;;;;;;14.79;79.14;97725.44;6071037;23;20482;-85
2024/04/01 12:07:04;;;;;;;4.68;3.60;;;;;;;14.80;79.55;97725.28;6072091;23;20053;-85
2024/04/01 12:09:31;;;;;;;4.57;3.92;;;;;;;14.80;78.90;97727.94;6071133;23;20029;-85
2024/04/01 12:11:58;;;;;;;4.88;4.38;;;;;;;14.84;79.27;97728.44;6071563;23;20074;-85
2024/04/01 12:14:27;;;;;;;5.18;4.63;;;;;;;14.84;78.58;97733.75;6071247;23;20424;-85
2024/04/01 12:16:56;;;;;;;5.13;4.68;;;;;;;14.85;78.89;97736.19;6047588;23;20467;-85
2024/04/01 12:19:22;;;;;;;5.90;5.28;;;;;;;14.84;78.55;97746.97;6071567;23;20409;-84
2024/04/01 12:21:48;;;;;;;6.78;5.28;;;;;;;14.83;78.16;97761.19;6047886;23;20066;-84
2024/04/01 12:24:19;;;;;;;6.45;5.35;;;;;;;14.78;77.04;97763.50;6070591;23;20022;-84
2024/04/01 12:26:50;;;;;;;6.97;5.53;;;;;;;14.74;77.18;97757.69;6071690;23;20037;-85
2024/04/01 12:29:17;;;;;;;7.07;6.38;;;;;;;14.72;77.93;97768.44;6071620;23;20563;-84
2024/04/01 12:31:47;;;;;;;6.55;5.93;;;;;;;14.67;76.87;97784.00;6071599;23;20048;-85
2024/04/01 12:34:13;;;;;;;7.38;6.57;;;;;;;14.65;77.90;97785.97;6071094;23;20026;-84
2024/04/01 12:36:41;;;;;;;7.05;6.40;;;;;;;14.60;77.68;97788.28;6071793;23;20022;-85
2024/04/01 12:39:12;;;;;;;7.35;6.65;;;;;;;14.55;77.02;97788.75;6071840;23;20495;-85
2024/04/01 12:41:39;;;;;;;7.20;6.50;;;;;;;14.53;77.61;97787.25;6070542;23;20026;-85
2024/04/01 12:44:10;;;;;;;7.07;6.38;;;;;;;14.44;77.05;97781.94;6069088;23;20074;-85
2024/04/01 12:46:41;;;;;;;7.78;6.80;;;;;;;14.40;76.67;97779.81;6069628;23;20034;-85
2024/04/01 12:49:14;;;;;;;8.63;7.32;;;;;;;14.33;76.89;97783.06;6045745;23;20022;-85
2024/04/01 12:51:47;;;;;;;9.70;8.38;;;;;;;14.28;77.19;97785.38;6069716;23;20026;-85
2024/04/01 12:54:56;;;;;;;8.70;7.82;;;;;;;14.24;76.92;97801.75;6070589;23;20033;-85
2024/04/01 12:57:49;;;;;;;9.35;7.95;;;;;;;14.20;77.27;97804.72;6046452;23;20044;-85
2024/04/01 13:00:28;;;;;;;9.40;8.40;;;;;;;14.20;78.25;97811.81;6046545;23;20022;-86
2024/04/01 13:03:12;;;;;;;9.98;8.95;;;;;;;14.22;79.39;97803.72;6070312;23;20026;-86
2024/04/01 13:05:48;;;;;;;9.50;8.52;;;;;;;14.20;79.43;97803.88;6069884;23;20045;-86
2024/04/01 13:08:36;;;;;;;8.73;7.82;;;;;;;14.17;78.38;97822.72;6070395;23;20030;-86
2024/04/01 13:11:30;;;;;;;9.65;8.50;;;;;;;14.21;78.67;97832.00;6070658;23;20037;-85
2024/04/01 13:14:15;;;;;;;9.13;6.95;;;;;;;14.22;78.13;97832.81;6069513;23;20027;-86
2024/04/01 13:17:04;;;;;;;10.18;7.70;;;;;;;14.20;76.45;97839.09;6046656;23;20022;-86
2024/04/01 13:19:45;;;;;;;7.63;6.82;;;;;;;14.20;77.29;97847.06;6046580;23;20030;-86
2024/04/01 13:22:25;;;;;;;8.10;7.30;;;;;;;14.20;78.80;97852.34;6046336;23;20026;-86
2024/04/01 13:24:58;;;;;;;8.32;7.28;;;;;;;14.14;77.92;97854.78;6045533;23;20027;-86
2024/04/01 13:27:44;;;;;;;9.00;8.10;;;;;;;14.08;77.71;97858.88;6071019;23;20090;-88
2024/04/01 13:30:28;;;;;;;8.55;7.75;;;;;;;14.06;77.13;97858.22;6070647;23;20086;-85
2024/04/01 13:33:00;;;;;;;9.23;8.23;;;;;;;14.05;77.50;97867.13;6070278;23;20026;-86
2024/04/01 13:36:00;;;;;;;8.93;7.95;;;;;;;13.97;75.62;97873.22;6046121;23;20022;-86
2024/04/01 13:39:03;;;;;;;7.82;7.13;;;;;;;13.94;76.42;97876.16;6040017;23;20034;-86
2024/04/01 13:41:43;;;;;;;9.00;8.10;;;;;;;13.91;76.96;97882.59;6070510;23;20363;-86
2024/04/01 13:44:36;;;;;;;8.48;7.68;;;;;;;13.82;76.30;97896.75;6046193;23;20082;-86
2024/04/01 13:47:29;;;;;;;9.40;8.20;;;;;;;13.77;76.99;97896.38;6070634;23;20026;-85
2024/04/01 13:50:07;;;;;;;10.73;8.87;;;;;;;13.74;77.46;97902.81;6069768;23;20037;-86
2024/04/01 13:52:54;;;;;;;10.48;9.48;;;;;;;13.68;77.67;97908.72;6069838;23;20033;-86
2024/04/01 13:55:30;;;;;;;11.85;9.70;;;;;;;13.67;78.19;97905.25;6065143;23;20460;-86
2024/04/01 13:58:14;;;;;;;10.48;9.48;;;;;;;13.63;78.01;97909.19;6064675;23;20022;-86
2024/04/01 14:00:46;;;;;;;11.60;10.05;;;;;;;13.63;78.10;97906.53;6064728;23;20030;-86
2024/04/01 14:03:26;;;;;;;11.02;9.65;;;;;;;13.61;78.07;97913.78;6064780;23;20389;-86
2024/04/01 14:06:24;;;;;;;10.60;9.48;;;;;;;13.61;78.02;97905.84;6064807;23;20023;-86
2024/04/01 14:08:59;;;;;;;10.68;9.57;;;;;;;13.63;78.55;97908.34;6065521;23;20022;-86
2024/04/01 14:11:44;;;;;;;11.15;9.25;;;;;;;13.63;79.48;97917.13;6041696;23;20035;-86
2024/04/01 14:14:14;;;;;;;11.50;9.48;;;;;;;13.63;79.28;97918.91;6065270;23;20030;-85
2024/04/01 14:16:58;;;;;;;9.85;8.85;;;;;;;13.59;78.31;97920.19;6065357;23;20397;-86
2024/04/01 14:19:48;;;;;;;10.38;9.05;;;;;;;13.57;78.42;97923.00;6065495;23;20039;-86
2024/04/01 14:22:14;;;;;;;12.68;9.68;;;;;;;13.62;79.77;97923.38;6064963;23;20345;-86
2024/04/01 14:24:39;;;;;;;11.30;10.18;;;;;;;13.63;79.84;97925.03;6065259;23;20026;-87
2024/04/01 14:27:05;;;;;;;10.18;8.98;;;;;;;13.64;80.02;97918.75;6065315;23;20502;-86
2024/04/01 14:29:31;;;;;;;10.23;9.18;;;;;;;13.66;79.98;97923.91;6065005;23;20026;-86
2024/04/01 14:31:56;;;;;;;10.13;9.05;;;;;;;13.66;79.63;97932.69;6065275;23;20030;-86
2024/04/01 14:34:22;;;;;;;10.18;9.18;;;;;;;13.66;79.08;97932.69;6064715;23;20058;-86
2024/04/01 14:36:48;;;;;;;10.88;9.70;;;;;;;13.65;78.61;97931.00;6040708;23;20030;-86
2024/04/01 14:39:14;;;;;;;9.90;8.77;;;;;;;13.63;78.73;97943.56;6064543;23;20027;-86
2024/04/01 14:41:40;;;;;;;10.00;8.95;;;;;;;13.61;78.64;97942.03;6064938;23;20063;-86
2024/04/01 14:44:05;;;;;;;11.30;9.50;;;;;;;13.59;78.88;97947.47;6064143;23;20119;-86
2024/04/01 14:46:31;;;;;;;10.40;9.18;;;;;;;13.57;78.85;97951.25;6064602;23;20065;-86
2024/04/01 14:48:57;;;;;;;13.52;10.27;;;;;;;13.54;79.10;97941.81;6064776;23;20026;-87
2024/04/01 14:51:23;;;;;;;10.43;9.43;;;;;;;13.55;79.34;97948.75;6065891;23;20026;-86
2024/04/01 14:53:55;;;;;;;10.48;9.38;;;;;;;13.55;79.77;97951.41;6041666;23;20026;-88
2024/04/01 14:56:22;;;;;;;10.40;9.23;;;;;;;13.53;79.51;97951.56;6041292;23;20483;-86
2024/04/01 14:58:48;;;;;;;10.93;9.80;;;;;;;13.54;79.04;97955.03;6065616;23;20049;-86
2024/04/01 15:01:14;;;;;;;13.75;10.13;;;;;;;13.53;78.99;97956.84;6064425;23;20079;-86
2024/04/01 15:03:40;;;;;;;11.15;10.05;;;;;;;13.51;78.75;97972.03;6064688;23;20405;-86
2024/04/01 15:06:07;;;;;;;11.90;10.00;;;;;;;13.50;79.12;97967.72;6064711;23;20022;-86
2024/04/01 15:08:33;;;;;;;13.10;10.00;;;;;;;13.49;79.31;97957.31;6064546;23;20039;-86
2024/04/01 15:11:04;;;;;;;13.68;10.55;;;;;;;13.46;78.77;97968.16;6064418;23;20062;-86
2024/04/01 15:13:40;;;;;;;11.13;9.65;;;;;;;13.42;77.88;97981.66;6041142;23;20074;-86
2024/04/01 15:16:14;;;;;;;11.35;9.85;;;;;;;13.46;79.01;97981.34;6041496;23;20083;-86
2024/04/01 15:18:41;;;;;;;11.80;8.98;;;;;;;13.43;78.95;97985.94;6040995;23;20023;-86
2024/04/01 15:21:10;;;;;;;11.82;9.10;;;;;;;13.40;78.37;97988.06;6041113;23;20082;-87
2024/04/01 15:23:36;;;;;;;13.20;8.30;;;;;;;13.41;78.56;97987.94;6064840;23;20039;-86
2024/04/01 15:26:02;;;;;;;10.20;9.10;;;;;;;13.40;78.91;97994.19;6064691;23;20030;-86
2024/04/01 15:28:28;;;;;;;11.23;8.77;;;;;;;13.41;79.01;97998.50;6064355;23;20034;-86
2024/04/01 15:30:54;;;;;;;10.93;8.60;;;;;;;13.43;78.74;97998.34;6064695;23;20106;-86
2024/04/01 15:33:21;;;;;;;11.52;8.77;;;;;;;13.43;78.77;97993.88;6040933;23;20027;-86
2024/04/01 15:35:49;;;;;;;10.57;8.18;;;;;;;13.43;78.17;97995.72;6064998;23;20027;-87
2024/04/01 15:38:16;;;;;;;11.05;8.23;;;;;;;13.42;78.27;97997.50;6067743;23;20029;-87
2024/04/01 15:40:42;;;;;;;12.57;8.95;;;;;;;13.42;77.72;98008.09;6067235;23;20791;-88
2024/04/01 15:43:09;;;;;;;11.95;8.07;;;;;;;13.41;77.90;98014.34;6042140;23;20037;-87
2024/04/01 15:45:37;;;;;;;11.02;8.52;;;;;;;13.38;77.32;98014.66;6064855;23;20035;-86
2024/04/01 15:48:04;;;;;;;16.15;8.43;;;;;;;13.36;77.72;98013.97;6041642;23;20023;-87
2024/04/01 15:50:30;;;;;;;11.38;7.95;;;;;;;13.36;77.67;98016.63;6065927;23;20022;-87
2024/04/01 15:52:56;;;;;;;12.63;8.65;;;;;;;13.36;77.89;98021.06;6042338;23;20027;-86
2024/04/01 15:55:22;;;;;;;9.98;7.85;;;;;;;13.35;77.57;98022.03;6041988;23;20019;-86
2024/04/01 15:57:48;;;;;;;9.40;7.90;;;;;;;13.37;78.03;98022.72;6066262;23;20417;-86
2024/04/01 16:00:13;;;;;;;11.85;7.63;;;;;;;13.34;77.46;98021.19;6066328;23;20037;-85
2024/04/01 16:02:41;;;;;;;11.48;7.85;;;;;;;13.33;76.76;98030.13;6066592;23;20027;-87
2024/04/01 16:05:14;;;;;;;8.13;7.28;;;;;;;13.32;75.88;98035.56;6066056;23;20030;-86
2024/04/01 16:07:41;;;;;;;9.70;7.10;;;;;;;13.31;76.98;98032.09;6042124;23;20029;-86
2024/04/01 16:10:07;;;;;;;8.50;6.53;;;;;;;13.31;77.13;98032.09;6066578;23;20026;-86
2024/04/01 16:12:33;;;;;;;11.18;6.95;;;;;;;13.29;77.39;98029.59;6066001;23;20023;-88
2024/04/01 16:14:58;;;;;;;9.20;6.72;;;;;;;13.27;76.98;98033.38;6041994;23;20090;-86
2024/04/01 16:17:28;;;;;;;13.13;7.05;;;;;;;13.22;76.09;98044.38;6042977;23;20026;-86
2024/04/01 16:20:00;;;;;;;11.15;6.15;;;;;;;13.19;75.13;98047.28;6042441;23;20023;-86
2024/04/01 16:22:29;;;;;;;8.20;6.10;;;;;;;13.19;76.19;98041.19;6067864;23;20033;-86
2024/04/01 16:24:55;;;;;;;9.57;6.05;;;;;;;13.19;76.85;98049.94;6068613;23;20019;-86
2024/04/01 16:27:39;;;;;;;7.78;5.47;;;;;;;13.15;75.32;98044.13;6044134;23;20033;-87
2024/04/01 16:30:15;;;;;;;7.47;5.00;;;;;;;13.19;74.56;98043.84;6065480;23;20033;-87
2024/04/01 16:32:42;;;;;;;6.78;4.45;;;;;;;13.21;76.70;98048.00;6042376;23;20031;-86
2024/04/01 16:35:08;;;;;;;6.38;4.72;;;;;;;13.23;76.91;98047.84;6065589;23;20019;-86
2024/04/01 16:37:34;;;;;;;6.70;4.70;;;;;;;13.24;76.18;98050.31;6066022;23;20749;-86
2024/04/01 16:40:02;;;;;;;8.85;4.28;;;;;;;13.24;75.73;98054.78;6066989;23;20027;-87
2024/04/01 16:42:34;;;;;;;5.80;3.80;;;;;;;13.22;74.04;98064.66;6041980;23;20046;-87